sensor_id;sensor_type;location;lat;lon;timestamp;P1;durP1;ratioP1;P2;durP2;ratioP2
61840;SDS011;47773;53.174;6.614;2022-11-15T00:01:24;29.55;;;16.88;;
61840;SDS011;47773;53.174;6.614;2022-11-15T00:03:53;29.13;;;17.23;;
61840;SDS011;47773;53.174;6.614;2022-11-15T00:06:18;28.63;;;15.50;;
61840;SDS011;47773;53.174;6.614;2022-11-15T00:08:44;31.63;;;17.05;;
61840;SDS011;47773;53.174;6.614;2022-11-15T00:11:10;31.73;;;17.33;;
61840;SDS011;47773;53.174;6.614;2022-11-15T00:13:37;28.20;;;16.02;;
61840;SDS011;47773;53.174;6.614;2022-11-15T00:16:03;31.80;;;16.88;;
61840;SDS011;47773;53.174;6.614;2022-11-15T00:18:29;33.45;;;18.60;;
61840;SDS011;47773;53.174;6.614;2022-11-15T00:20:55;29.88;;;17.08;;
61840;SDS011;47773;53.174;6.614;2022-11-15T00:23:21;31.48;;;17.20;;
61840;SDS011;47773;53.174;6.614;2022-11-15T00:25:47;29.02;;;16.95;;
61840;SDS011;47773;53.174;6.614;2022-11-15T00:30:45;31.58;;;16.02;;
61840;SDS011;47773;53.174;6.614;2022-11-15T00:33:10;25.40;;;15.52;;
61840;SDS011;47773;53.174;6.614;2022-11-15T00:35:36;29.00;;;16.67;;
61840;SDS011;47773;53.174;6.614;2022-11-15T00:38:02;27.48;;;16.80;;
61840;SDS011;47773;53.174;6.614;2022-11-15T00:40:28;29.17;;;16.60;;
61840;SDS011;47773;53.174;6.614;2022-11-15T00:42:54;26.95;;;16.45;;
61840;SDS011;47773;53.174;6.614;2022-11-15T00:45:19;31.90;;;17.38;;
61840;SDS011;47773;53.174;6.614;2022-11-15T00:47:45;27.95;;;16.08;;
61840;SDS011;47773;53.174;6.614;2022-11-15T00:50:11;29.17;;;15.90;;
61840;SDS011;47773;53.174;6.614;2022-11-15T00:52:37;30.73;;;17.08;;
61840;SDS011;47773;53.174;6.614;2022-11-15T00:55:03;26.33;;;15.77;;
61840;SDS011;47773;53.174;6.614;2022-11-15T00:57:29;25.65;;;15.23;;
61840;SDS011;47773;53.174;6.614;2022-11-15T00:59:55;26.55;;;15.18;;
61840;SDS011;47773;53.174;6.614;2022-11-15T01:02:20;29.77;;;15.52;;
61840;SDS011;47773;53.174;6.614;2022-11-15T01:04:46;27.40;;;15.40;;
61840;SDS011;47773;53.174;6.614;2022-11-15T01:07:12;27.45;;;15.40;;
61840;SDS011;47773;53.174;6.614;2022-11-15T01:09:37;27.30;;;16.15;;
61840;SDS011;47773;53.174;6.614;2022-11-15T01:12:03;29.45;;;15.88;;
61840;SDS011;47773;53.174;6.614;2022-11-15T01:14:29;27.33;;;16.20;;
61840;SDS011;47773;53.174;6.614;2022-11-15T01:16:55;25.38;;;15.18;;
61840;SDS011;47773;53.174;6.614;2022-11-15T01:19:20;27.13;;;15.20;;
61840;SDS011;47773;53.174;6.614;2022-11-15T01:21:48;23.85;;;14.68;;
61840;SDS011;47773;53.174;6.614;2022-11-15T01:24:15;27.63;;;15.40;;
61840;SDS011;47773;53.174;6.614;2022-11-15T01:26:40;25.67;;;15.32;;
61840;SDS011;47773;53.174;6.614;2022-11-15T01:29:06;25.10;;;15.10;;
61840;SDS011;47773;53.174;6.614;2022-11-15T01:31:31;29.52;;;15.90;;
61840;SDS011;47773;53.174;6.614;2022-11-15T01:33:57;27.08;;;15.55;;
61840;SDS011;47773;53.174;6.614;2022-11-15T01:36:23;29.58;;;16.58;;
61840;SDS011;47773;53.174;6.614;2022-11-15T01:38:55;30.25;;;16.60;;
61840;SDS011;47773;53.174;6.614;2022-11-15T01:41:23;29.17;;;16.02;;
61840;SDS011;47773;53.174;6.614;2022-11-15T01:43:57;29.45;;;16.70;;
61840;SDS011;47773;53.174;6.614;2022-11-15T01:50:02;28.05;;;16.00;;
61840;SDS011;47773;53.174;6.614;2022-11-15T01:52:31;31.63;;;15.80;;
61840;SDS011;47773;53.174;6.614;2022-11-15T01:57:39;29.88;;;15.25;;
61840;SDS011;47773;53.174;6.614;2022-11-15T02:00:07;29.55;;;15.57;;
61840;SDS011;47773;53.174;6.614;2022-11-15T02:02:34;30.65;;;15.77;;
61840;SDS011;47773;53.174;6.614;2022-11-15T02:05:02;27.58;;;15.85;;
61840;SDS011;47773;53.174;6.614;2022-11-15T02:07:28;29.25;;;15.10;;
61840;SDS011;47773;53.174;6.614;2022-11-15T02:09:56;31.08;;;15.35;;
61840;SDS011;47773;53.174;6.614;2022-11-15T02:12:26;27.60;;;14.70;;
61840;SDS011;47773;53.174;6.614;2022-11-15T02:14:53;27.10;;;14.93;;
61840;SDS011;47773;53.174;6.614;2022-11-15T02:23:11;29.02;;;15.43;;
61840;SDS011;47773;53.174;6.614;2022-11-15T02:28:24;26.23;;;15.07;;
61840;SDS011;47773;53.174;6.614;2022-11-15T02:33:41;31.60;;;15.52;;
61840;SDS011;47773;53.174;6.614;2022-11-15T02:39:08;30.05;;;15.98;;
61840;SDS011;47773;53.174;6.614;2022-11-15T02:41:48;28.55;;;14.25;;
61840;SDS011;47773;53.174;6.614;2022-11-15T02:44:39;29.73;;;14.95;;
61840;SDS011;47773;53.174;6.614;2022-11-15T02:47:09;36.10;;;16.23;;
61840;SDS011;47773;53.174;6.614;2022-11-15T02:49:49;34.72;;;15.88;;
61840;SDS011;47773;53.174;6.614;2022-11-15T02:52:17;33.15;;;17.83;;
61840;SDS011;47773;53.174;6.614;2022-11-15T02:57:21;34.10;;;16.77;;
61840;SDS011;47773;53.174;6.614;2022-11-15T03:00:10;34.95;;;16.75;;
61840;SDS011;47773;53.174;6.614;2022-11-15T03:03:26;30.67;;;16.05;;
61840;SDS011;47773;53.174;6.614;2022-11-15T03:11:13;36.15;;;16.65;;
61840;SDS011;47773;53.174;6.614;2022-11-15T03:16:21;33.22;;;15.35;;
61840;SDS011;47773;53.174;6.614;2022-11-15T03:19:06;33.35;;;15.55;;
61840;SDS011;47773;53.174;6.614;2022-11-15T03:21:32;34.10;;;15.85;;
61840;SDS011;47773;53.174;6.614;2022-11-15T03:24:00;35.92;;;16.75;;
61840;SDS011;47773;53.174;6.614;2022-11-15T03:26:30;37.78;;;16.27;;
61840;SDS011;47773;53.174;6.614;2022-11-15T03:29:08;31.98;;;15.63;;
61840;SDS011;47773;53.174;6.614;2022-11-15T03:31:38;35.92;;;16.48;;
61840;SDS011;47773;53.174;6.614;2022-11-15T03:34:18;32.60;;;16.05;;
61840;SDS011;47773;53.174;6.614;2022-11-15T03:36:44;32.17;;;16.05;;
61840;SDS011;47773;53.174;6.614;2022-11-15T03:39:11;36.00;;;16.67;;
61840;SDS011;47773;53.174;6.614;2022-11-15T03:42:02;35.55;;;16.73;;
61840;SDS011;47773;53.174;6.614;2022-11-15T03:44:58;33.80;;;15.43;;
61840;SDS011;47773;53.174;6.614;2022-11-15T03:47:52;26.85;;;15.02;;
61840;SDS011;47773;53.174;6.614;2022-11-15T03:50:32;31.38;;;14.80;;
61840;SDS011;47773;53.174;6.614;2022-11-15T03:52:59;33.92;;;15.43;;
61840;SDS011;47773;53.174;6.614;2022-11-15T03:55:25;35.88;;;16.98;;
61840;SDS011;47773;53.174;6.614;2022-11-15T03:57:51;32.50;;;15.40;;
61840;SDS011;47773;53.174;6.614;2022-11-15T04:00:19;36.80;;;16.85;;
61840;SDS011;47773;53.174;6.614;2022-11-15T04:02:45;31.63;;;15.55;;
61840;SDS011;47773;53.174;6.614;2022-11-15T04:05:10;33.25;;;15.48;;
61840;SDS011;47773;53.174;6.614;2022-11-15T04:07:36;37.92;;;17.13;;
61840;SDS011;47773;53.174;6.614;2022-11-15T04:10:02;36.10;;;16.50;;
61840;SDS011;47773;53.174;6.614;2022-11-15T04:12:29;36.97;;;16.63;;
61840;SDS011;47773;53.174;6.614;2022-11-15T04:17:39;36.67;;;16.30;;
61840;SDS011;47773;53.174;6.614;2022-11-15T04:20:11;37.22;;;16.33;;
61840;SDS011;47773;53.174;6.614;2022-11-15T04:25:49;38.72;;;15.88;;
61840;SDS011;47773;53.174;6.614;2022-11-15T04:28:16;39.40;;;17.38;;
61840;SDS011;47773;53.174;6.614;2022-11-15T04:30:42;40.63;;;18.27;;
61840;SDS011;47773;53.174;6.614;2022-11-15T04:33:07;40.25;;;17.40;;
61840;SDS011;47773;53.174;6.614;2022-11-15T04:35:33;43.95;;;17.13;;
61840;SDS011;47773;53.174;6.614;2022-11-15T04:38:00;39.33;;;17.42;;
61840;SDS011;47773;53.174;6.614;2022-11-15T04:40:26;37.85;;;17.30;;
61840;SDS011;47773;53.174;6.614;2022-11-15T04:42:52;37.83;;;17.58;;
61840;SDS011;47773;53.174;6.614;2022-11-15T04:45:17;42.42;;;17.35;;
61840;SDS011;47773;53.174;6.614;2022-11-15T04:47:44;45.58;;;16.80;;
61840;SDS011;47773;53.174;6.614;2022-11-15T04:50:10;41.17;;;18.27;;
61840;SDS011;47773;53.174;6.614;2022-11-15T04:52:40;41.45;;;16.63;;
61840;SDS011;47773;53.174;6.614;2022-11-15T04:55:07;40.35;;;16.90;;
61840;SDS011;47773;53.174;6.614;2022-11-15T04:57:36;45.65;;;19.05;;
61840;SDS011;47773;53.174;6.614;2022-11-15T05:00:06;45.47;;;18.13;;
61840;SDS011;47773;53.174;6.614;2022-11-15T05:02:36;47.50;;;18.95;;
61840;SDS011;47773;53.174;6.614;2022-11-15T05:05:20;41.72;;;17.80;;
61840;SDS011;47773;53.174;6.614;2022-11-15T05:07:46;45.60;;;18.85;;
61840;SDS011;47773;53.174;6.614;2022-11-15T05:10:11;52.85;;;19.92;;
61840;SDS011;47773;53.174;6.614;2022-11-15T05:12:37;53.72;;;20.17;;
61840;SDS011;47773;53.174;6.614;2022-11-15T05:15:03;42.92;;;19.00;;
61840;SDS011;47773;53.174;6.614;2022-11-15T05:17:29;43.08;;;18.67;;
61840;SDS011;47773;53.174;6.614;2022-11-15T05:19:54;45.83;;;18.63;;
61840;SDS011;47773;53.174;6.614;2022-11-15T05:22:20;51.65;;;21.13;;
61840;SDS011;47773;53.174;6.614;2022-11-15T05:24:46;44.78;;;20.13;;
61840;SDS011;47773;53.174;6.614;2022-11-15T05:27:11;50.78;;;20.08;;
61840;SDS011;47773;53.174;6.614;2022-11-15T05:29:37;46.30;;;20.13;;
61840;SDS011;47773;53.174;6.614;2022-11-15T05:32:03;45.40;;;20.95;;
61840;SDS011;47773;53.174;6.614;2022-11-15T05:34:30;47.85;;;20.48;;
61840;SDS011;47773;53.174;6.614;2022-11-15T05:36:56;58.58;;;21.27;;
61840;SDS011;47773;53.174;6.614;2022-11-15T05:39:22;56.20;;;22.20;;
61840;SDS011;47773;53.174;6.614;2022-11-15T05:41:54;53.67;;;21.63;;
61840;SDS011;47773;53.174;6.614;2022-11-15T05:44:25;49.67;;;21.38;;
61840;SDS011;47773;53.174;6.614;2022-11-15T05:46:51;52.42;;;22.23;;
61840;SDS011;47773;53.174;6.614;2022-11-15T05:49:21;53.83;;;20.77;;
61840;SDS011;47773;53.174;6.614;2022-11-15T05:51:50;55.92;;;22.38;;
61840;SDS011;47773;53.174;6.614;2022-11-15T05:54:18;50.70;;;21.13;;
61840;SDS011;47773;53.174;6.614;2022-11-15T05:56:45;55.03;;;21.42;;
61840;SDS011;47773;53.174;6.614;2022-11-15T05:59:11;50.60;;;22.60;;
61840;SDS011;47773;53.174;6.614;2022-11-15T06:01:37;54.15;;;22.85;;
61840;SDS011;47773;53.174;6.614;2022-11-15T06:04:05;55.17;;;22.48;;
61840;SDS011;47773;53.174;6.614;2022-11-15T06:06:31;57.97;;;22.98;;
61840;SDS011;47773;53.174;6.614;2022-11-15T06:08:57;55.47;;;23.42;;
61840;SDS011;47773;53.174;6.614;2022-11-15T06:11:22;52.85;;;24.00;;
61840;SDS011;47773;53.174;6.614;2022-11-15T06:13:48;48.22;;;22.25;;
61840;SDS011;47773;53.174;6.614;2022-11-15T06:16:13;58.35;;;21.95;;
61840;SDS011;47773;53.174;6.614;2022-11-15T06:18:39;56.67;;;23.83;;
61840;SDS011;47773;53.174;6.614;2022-11-15T06:21:05;55.10;;;22.52;;
61840;SDS011;47773;53.174;6.614;2022-11-15T06:23:31;59.42;;;24.20;;
61840;SDS011;47773;53.174;6.614;2022-11-15T06:25:59;53.33;;;24.05;;
61840;SDS011;47773;53.174;6.614;2022-11-15T06:28:28;50.92;;;22.83;;
61840;SDS011;47773;53.174;6.614;2022-11-15T06:30:55;55.20;;;22.75;;
61840;SDS011;47773;53.174;6.614;2022-11-15T06:33:20;52.80;;;23.52;;
61840;SDS011;47773;53.174;6.614;2022-11-15T06:35:46;43.83;;;21.35;;
61840;SDS011;47773;53.174;6.614;2022-11-15T06:38:12;51.47;;;21.67;;
61840;SDS011;47773;53.174;6.614;2022-11-15T06:40:38;52.92;;;22.65;;
61840;SDS011;47773;53.174;6.614;2022-11-15T06:43:04;53.33;;;22.42;;
61840;SDS011;47773;53.174;6.614;2022-11-15T06:45:31;54.00;;;22.55;;
61840;SDS011;47773;53.174;6.614;2022-11-15T06:47:57;47.50;;;22.50;;
61840;SDS011;47773;53.174;6.614;2022-11-15T06:50:23;51.20;;;22.85;;
61840;SDS011;47773;53.174;6.614;2022-11-15T06:52:49;50.30;;;21.98;;
61840;SDS011;47773;53.174;6.614;2022-11-15T06:55:15;47.00;;;24.23;;
61840;SDS011;47773;53.174;6.614;2022-11-15T06:57:47;51.35;;;21.92;;
61840;SDS011;47773;53.174;6.614;2022-11-15T07:00:17;45.92;;;21.92;;
61840;SDS011;47773;53.174;6.614;2022-11-15T07:02:44;54.90;;;22.88;;
61840;SDS011;47773;53.174;6.614;2022-11-15T07:05:11;49.67;;;22.20;;
61840;SDS011;47773;53.174;6.614;2022-11-15T07:07:37;51.42;;;22.70;;
61840;SDS011;47773;53.174;6.614;2022-11-15T07:10:03;50.63;;;22.25;;
61840;SDS011;47773;53.174;6.614;2022-11-15T07:12:29;49.58;;;21.48;;
61840;SDS011;47773;53.174;6.614;2022-11-15T07:14:55;56.83;;;22.38;;
61840;SDS011;47773;53.174;6.614;2022-11-15T07:17:21;48.58;;;21.33;;
61840;SDS011;47773;53.174;6.614;2022-11-15T07:19:46;46.58;;;20.70;;
61840;SDS011;47773;53.174;6.614;2022-11-15T07:22:12;45.78;;;20.80;;
61840;SDS011;47773;53.174;6.614;2022-11-15T07:24:37;45.05;;;21.20;;
61840;SDS011;47773;53.174;6.614;2022-11-15T07:27:03;42.78;;;21.75;;
61840;SDS011;47773;53.174;6.614;2022-11-15T07:29:28;48.17;;;21.13;;
61840;SDS011;47773;53.174;6.614;2022-11-15T07:31:54;58.70;;;21.70;;
61840;SDS011;47773;53.174;6.614;2022-11-15T07:34:20;49.28;;;21.42;;
61840;SDS011;47773;53.174;6.614;2022-11-15T07:36:45;51.40;;;21.40;;
61840;SDS011;47773;53.174;6.614;2022-11-15T07:39:11;47.08;;;21.42;;
61840;SDS011;47773;53.174;6.614;2022-11-15T07:41:37;53.60;;;21.50;;
61840;SDS011;47773;53.174;6.614;2022-11-15T07:44:03;53.03;;;20.95;;
61840;SDS011;47773;53.174;6.614;2022-11-15T07:46:29;46.83;;;21.10;;
61840;SDS011;47773;53.174;6.614;2022-11-15T07:48:55;42.63;;;20.63;;
61840;SDS011;47773;53.174;6.614;2022-11-15T07:51:21;46.92;;;20.65;;
61840;SDS011;47773;53.174;6.614;2022-11-15T07:53:47;43.25;;;21.80;;
61840;SDS011;47773;53.174;6.614;2022-11-15T07:56:12;47.40;;;21.90;;
61840;SDS011;47773;53.174;6.614;2022-11-15T07:58:38;44.15;;;20.27;;
61840;SDS011;47773;53.174;6.614;2022-11-15T08:01:07;45.28;;;19.20;;
61840;SDS011;47773;53.174;6.614;2022-11-15T08:03:34;44.42;;;19.88;;
61840;SDS011;47773;53.174;6.614;2022-11-15T08:06:01;36.20;;;19.70;;
61840;SDS011;47773;53.174;6.614;2022-11-15T08:08:27;42.53;;;19.70;;
61840;SDS011;47773;53.174;6.614;2022-11-15T08:10:53;39.58;;;19.35;;
61840;SDS011;47773;53.174;6.614;2022-11-15T08:13:18;34.65;;;19.70;;
61840;SDS011;47773;53.174;6.614;2022-11-15T08:15:44;40.78;;;18.95;;
61840;SDS011;47773;53.174;6.614;2022-11-15T08:18:11;42.05;;;20.55;;
61840;SDS011;47773;53.174;6.614;2022-11-15T08:20:39;44.30;;;19.83;;
61840;SDS011;47773;53.174;6.614;2022-11-15T08:23:05;39.08;;;19.50;;
61840;SDS011;47773;53.174;6.614;2022-11-15T08:25:32;39.35;;;19.20;;
61840;SDS011;47773;53.174;6.614;2022-11-15T08:27:59;36.28;;;19.48;;
61840;SDS011;47773;53.174;6.614;2022-11-15T08:30:26;32.22;;;18.67;;
61840;SDS011;47773;53.174;6.614;2022-11-15T08:32:52;32.83;;;18.42;;
61840;SDS011;47773;53.174;6.614;2022-11-15T08:35:19;31.02;;;17.10;;
61840;SDS011;47773;53.174;6.614;2022-11-15T08:37:45;48.28;;;18.35;;
61840;SDS011;47773;53.174;6.614;2022-11-15T08:40:12;31.42;;;18.02;;
61840;SDS011;47773;53.174;6.614;2022-11-15T08:42:38;34.58;;;17.50;;
61840;SDS011;47773;53.174;6.614;2022-11-15T08:45:04;31.25;;;16.50;;
61840;SDS011;47773;53.174;6.614;2022-11-15T08:47:30;35.78;;;17.58;;
61840;SDS011;47773;53.174;6.614;2022-11-15T08:49:56;32.17;;;17.35;;
61840;SDS011;47773;53.174;6.614;2022-11-15T08:52:21;29.67;;;16.50;;
61840;SDS011;47773;53.174;6.614;2022-11-15T08:54:47;34.55;;;17.20;;
61840;SDS011;47773;53.174;6.614;2022-11-15T08:57:13;34.22;;;17.95;;
61840;SDS011;47773;53.174;6.614;2022-11-15T08:59:38;34.38;;;16.38;;
61840;SDS011;47773;53.174;6.614;2022-11-15T09:02:04;29.02;;;16.42;;
61840;SDS011;47773;53.174;6.614;2022-11-15T09:04:30;32.25;;;17.00;;
61840;SDS011;47773;53.174;6.614;2022-11-15T09:06:56;31.83;;;15.95;;
61840;SDS011;47773;53.174;6.614;2022-11-15T09:09:22;25.65;;;15.70;;
61840;SDS011;47773;53.174;6.614;2022-11-15T09:11:48;29.40;;;15.38;;
61840;SDS011;47773;53.174;6.614;2022-11-15T09:14:15;31.30;;;16.00;;
61840;SDS011;47773;53.174;6.614;2022-11-15T09:16:41;29.52;;;16.17;;
61840;SDS011;47773;53.174;6.614;2022-11-15T09:19:06;29.13;;;15.77;;
61840;SDS011;47773;53.174;6.614;2022-11-15T09:21:33;26.27;;;13.90;;
61840;SDS011;47773;53.174;6.614;2022-11-15T09:23:59;27.92;;;14.57;;
61840;SDS011;47773;53.174;6.614;2022-11-15T09:26:24;28.58;;;15.18;;
61840;SDS011;47773;53.174;6.614;2022-11-15T09:28:50;28.63;;;14.88;;
61840;SDS011;47773;53.174;6.614;2022-11-15T09:31:16;23.48;;;14.13;;
61840;SDS011;47773;53.174;6.614;2022-11-15T09:33:45;25.52;;;14.38;;
61840;SDS011;47773;53.174;6.614;2022-11-15T09:36:11;27.10;;;14.52;;
61840;SDS011;47773;53.174;6.614;2022-11-15T09:38:37;24.52;;;14.30;;
61840;SDS011;47773;53.174;6.614;2022-11-15T09:46:20;24.80;;;14.50;;
61840;SDS011;47773;53.174;6.614;2022-11-15T09:48:48;29.38;;;14.05;;
61840;SDS011;47773;53.174;6.614;2022-11-15T09:52:00;22.98;;;14.00;;
61840;SDS011;47773;53.174;6.614;2022-11-15T09:54:28;28.90;;;15.27;;
61840;SDS011;47773;53.174;6.614;2022-11-15T09:59:51;30.85;;;14.85;;
61840;SDS011;47773;53.174;6.614;2022-11-15T10:05:22;24.03;;;14.77;;
61840;SDS011;47773;53.174;6.614;2022-11-15T10:08:02;22.98;;;13.20;;
61840;SDS011;47773;53.174;6.614;2022-11-15T10:10:37;30.40;;;14.30;;
61840;SDS011;47773;53.174;6.614;2022-11-15T10:13:03;27.67;;;14.18;;
61840;SDS011;47773;53.174;6.614;2022-11-15T10:15:32;24.23;;;13.85;;
61840;SDS011;47773;53.174;6.614;2022-11-15T10:18:13;25.42;;;14.30;;
61840;SDS011;47773;53.174;6.614;2022-11-15T10:20:57;26.27;;;13.15;;
61840;SDS011;47773;53.174;6.614;2022-11-15T10:23:25;30.02;;;14.10;;
61840;SDS011;47773;53.174;6.614;2022-11-15T10:25:54;21.30;;;13.00;;
61840;SDS011;47773;53.174;6.614;2022-11-15T10:28:28;24.13;;;13.25;;
61840;SDS011;47773;53.174;6.614;2022-11-15T10:30:56;25.38;;;13.82;;
61840;SDS011;47773;53.174;6.614;2022-11-15T10:33:36;24.10;;;14.05;;
61840;SDS011;47773;53.174;6.614;2022-11-15T10:46:36;19.65;;;12.65;;
61840;SDS011;47773;53.174;6.614;2022-11-15T10:49:20;22.60;;;12.25;;
61840;SDS011;47773;53.174;6.614;2022-11-15T10:51:53;23.27;;;14.05;;
61840;SDS011;47773;53.174;6.614;2022-11-15T10:54:39;23.25;;;12.07;;
61840;SDS011;47773;53.174;6.614;2022-11-15T10:57:14;25.45;;;12.77;;
61840;SDS011;47773;53.174;6.614;2022-11-15T10:59:44;20.33;;;12.52;;
61840;SDS011;47773;53.174;6.614;2022-11-15T11:05:05;22.10;;;12.45;;
61840;SDS011;47773;53.174;6.614;2022-11-15T11:07:55;22.35;;;12.27;;
61840;SDS011;47773;53.174;6.614;2022-11-15T11:10:22;24.35;;;12.30;;
61840;SDS011;47773;53.174;6.614;2022-11-15T11:12:48;20.23;;;11.30;;
61840;SDS011;47773;53.174;6.614;2022-11-15T11:15:14;21.20;;;11.98;;
61840;SDS011;47773;53.174;6.614;2022-11-15T11:20:28;20.33;;;11.35;;
61840;SDS011;47773;53.174;6.614;2022-11-15T11:23:19;18.30;;;10.70;;
61840;SDS011;47773;53.174;6.614;2022-11-15T11:25:59;21.65;;;11.13;;
61840;SDS011;47773;53.174;6.614;2022-11-15T11:31:28;19.42;;;11.02;;
61840;SDS011;47773;53.174;6.614;2022-11-15T11:36:46;16.00;;;10.35;;
61840;SDS011;47773;53.174;6.614;2022-11-15T11:39:19;16.52;;;10.30;;
61840;SDS011;47773;53.174;6.614;2022-11-15T11:42:03;19.67;;;11.30;;
61840;SDS011;47773;53.174;6.614;2022-11-15T11:44:55;17.30;;;10.85;;
61840;SDS011;47773;53.174;6.614;2022-11-15T11:47:30;16.63;;;10.43;;
61840;SDS011;47773;53.174;6.614;2022-11-15T11:50:00;18.50;;;10.25;;
61840;SDS011;47773;53.174;6.614;2022-11-15T11:52:42;13.68;;;8.80;;
61840;SDS011;47773;53.174;6.614;2022-11-15T12:00:54;16.90;;;8.30;;
61840;SDS011;47773;53.174;6.614;2022-11-15T12:03:25;14.35;;;8.18;;
61840;SDS011;47773;53.174;6.614;2022-11-15T12:06:02;14.02;;;6.85;;
61840;SDS011;47773;53.174;6.614;2022-11-15T12:08:43;11.00;;;6.40;;
61840;SDS011;47773;53.174;6.614;2022-11-15T12:11:17;14.10;;;6.07;;
61840;SDS011;47773;53.174;6.614;2022-11-15T12:14:16;8.43;;;5.38;;
61840;SDS011;47773;53.174;6.614;2022-11-15T12:16:52;10.77;;;5.75;;
61840;SDS011;47773;53.174;6.614;2022-11-15T12:19:18;11.05;;;5.88;;
61840;SDS011;47773;53.174;6.614;2022-11-15T12:21:44;10.60;;;6.07;;
61840;SDS011;47773;53.174;6.614;2022-11-15T12:24:22;11.88;;;5.97;;
61840;SDS011;47773;53.174;6.614;2022-11-15T12:26:57;10.23;;;5.90;;
61840;SDS011;47773;53.174;6.614;2022-11-15T12:32:01;12.02;;;6.30;;
61840;SDS011;47773;53.174;6.614;2022-11-15T12:34:29;9.43;;;5.57;;
61840;SDS011;47773;53.174;6.614;2022-11-15T12:37:02;9.95;;;5.22;;
61840;SDS011;47773;53.174;6.614;2022-11-15T12:45:33;11.10;;;4.57;;
61840;SDS011;47773;53.174;6.614;2022-11-15T12:58:54;13.23;;;4.30;;
61840;SDS011;47773;53.174;6.614;2022-11-15T13:06:53;9.02;;;4.25;;
61840;SDS011;47773;53.174;6.614;2022-11-15T13:19:45;7.88;;;4.00;;
61840;SDS011;47773;53.174;6.614;2022-11-15T13:22:12;9.85;;;4.28;;
61840;SDS011;47773;53.174;6.614;2022-11-15T13:24:58;8.80;;;3.47;;
61840;SDS011;47773;53.174;6.614;2022-11-15T13:27:25;5.10;;;3.30;;
61840;SDS011;47773;53.174;6.614;2022-11-15T13:29:52;8.73;;;3.85;;
61840;SDS011;47773;53.174;6.614;2022-11-15T13:32:17;12.20;;;3.90;;
61840;SDS011;47773;53.174;6.614;2022-11-15T13:34:44;9.70;;;3.47;;
61840;SDS011;47773;53.174;6.614;2022-11-15T13:37:33;8.57;;;3.83;;
61840;SDS011;47773;53.174;6.614;2022-11-15T13:42:45;5.00;;;3.08;;
61840;SDS011;47773;53.174;6.614;2022-11-15T13:45:12;9.18;;;3.22;;
61840;SDS011;47773;53.174;6.614;2022-11-15T13:47:40;6.50;;;3.00;;
61840;SDS011;47773;53.174;6.614;2022-11-15T13:50:10;6.25;;;3.13;;
61840;SDS011;47773;53.174;6.614;2022-11-15T13:52:36;8.13;;;3.00;;
61840;SDS011;47773;53.174;6.614;2022-11-15T13:57:49;7.13;;;3.20;;
61840;SDS011;47773;53.174;6.614;2022-11-15T14:00:42;9.25;;;3.00;;
61840;SDS011;47773;53.174;6.614;2022-11-15T14:06:03;7.78;;;3.33;;
61840;SDS011;47773;53.174;6.614;2022-11-15T14:08:31;5.78;;;3.28;;
61840;SDS011;47773;53.174;6.614;2022-11-15T14:11:12;6.38;;;3.38;;
61840;SDS011;47773;53.174;6.614;2022-11-15T14:13:38;8.02;;;3.67;;
61840;SDS011;47773;53.174;6.614;2022-11-15T14:16:14;6.57;;;3.58;;
61840;SDS011;47773;53.174;6.614;2022-11-15T14:18:46;6.47;;;3.22;;
61840;SDS011;47773;53.174;6.614;2022-11-15T14:21:16;6.35;;;2.65;;
61840;SDS011;47773;53.174;6.614;2022-11-15T14:23:43;12.13;;;3.25;;
61840;SDS011;47773;53.174;6.614;2022-11-15T14:26:31;8.77;;;3.50;;
61840;SDS011;47773;53.174;6.614;2022-11-15T14:31:47;6.85;;;2.53;;
61840;SDS011;47773;53.174;6.614;2022-11-15T14:34:13;7.70;;;3.00;;
61840;SDS011;47773;53.174;6.614;2022-11-15T14:36:38;5.60;;;2.40;;
61840;SDS011;47773;53.174;6.614;2022-11-15T14:39:04;5.90;;;2.30;;
61840;SDS011;47773;53.174;6.614;2022-11-15T14:41:33;3.65;;;2.47;;
61840;SDS011;47773;53.174;6.614;2022-11-15T14:44:03;4.65;;;2.45;;
61840;SDS011;47773;53.174;6.614;2022-11-15T14:46:29;4.70;;;2.10;;
61840;SDS011;47773;53.174;6.614;2022-11-15T14:48:55;4.25;;;2.55;;
61840;SDS011;47773;53.174;6.614;2022-11-15T14:51:21;5.30;;;2.50;;
61840;SDS011;47773;53.174;6.614;2022-11-15T14:53:47;5.85;;;2.65;;
61840;SDS011;47773;53.174;6.614;2022-11-15T14:56:13;4.00;;;2.45;;
61840;SDS011;47773;53.174;6.614;2022-11-15T14:58:39;6.35;;;2.40;;
61840;SDS011;47773;53.174;6.614;2022-11-15T15:01:19;6.30;;;2.72;;
61840;SDS011;47773;53.174;6.614;2022-11-15T15:03:47;5.90;;;2.72;;
61840;SDS011;47773;53.174;6.614;2022-11-15T15:06:12;6.93;;;2.92;;
61840;SDS011;47773;53.174;6.614;2022-11-15T15:08:39;4.78;;;2.60;;
61840;SDS011;47773;53.174;6.614;2022-11-15T15:11:10;6.57;;;3.13;;
61840;SDS011;47773;53.174;6.614;2022-11-15T15:13:42;9.73;;;3.53;;
61840;SDS011;47773;53.174;6.614;2022-11-15T15:16:07;6.55;;;3.58;;
61840;SDS011;47773;53.174;6.614;2022-11-15T15:18:33;10.60;;;3.90;;
61840;SDS011;47773;53.174;6.614;2022-11-15T15:20:59;9.63;;;4.43;;
61840;SDS011;47773;53.174;6.614;2022-11-15T15:23:27;10.38;;;4.40;;
61840;SDS011;47773;53.174;6.614;2022-11-15T15:25:56;10.07;;;3.33;;
61840;SDS011;47773;53.174;6.614;2022-11-15T15:28:22;5.18;;;2.72;;
61840;SDS011;47773;53.174;6.614;2022-11-15T15:30:47;6.85;;;3.00;;
61840;SDS011;47773;53.174;6.614;2022-11-15T15:33:14;5.35;;;3.40;;
61840;SDS011;47773;53.174;6.614;2022-11-15T15:35:40;6.00;;;3.45;;
61840;SDS011;47773;53.174;6.614;2022-11-15T15:38:08;7.75;;;3.10;;
61840;SDS011;47773;53.174;6.614;2022-11-15T15:40:37;7.88;;;3.42;;
61840;SDS011;47773;53.174;6.614;2022-11-15T15:43:03;8.52;;;3.90;;
61840;SDS011;47773;53.174;6.614;2022-11-15T15:45:29;9.50;;;3.90;;
61840;SDS011;47773;53.174;6.614;2022-11-15T15:47:55;8.98;;;4.82;;
61840;SDS011;47773;53.174;6.614;2022-11-15T15:50:25;12.55;;;4.53;;
61840;SDS011;47773;53.174;6.614;2022-11-15T15:52:52;5.03;;;3.50;;
61840;SDS011;47773;53.174;6.614;2022-11-15T15:55:19;7.72;;;3.83;;
61840;SDS011;47773;53.174;6.614;2022-11-15T15:57:45;5.47;;;3.53;;
61840;SDS011;47773;53.174;6.614;2022-11-15T16:00:12;6.13;;;3.67;;
61840;SDS011;47773;53.174;6.614;2022-11-15T16:02:38;8.80;;;3.78;;
61840;SDS011;47773;53.174;6.614;2022-11-15T16:05:05;9.77;;;3.70;;
61840;SDS011;47773;53.174;6.614;2022-11-15T16:07:31;6.20;;;3.70;;
61840;SDS011;47773;53.174;6.614;2022-11-15T16:09:57;5.75;;;3.58;;
61840;SDS011;47773;53.174;6.614;2022-11-15T16:12:26;6.63;;;3.78;;
61840;SDS011;47773;53.174;6.614;2022-11-15T16:14:52;7.68;;;4.18;;
61840;SDS011;47773;53.174;6.614;2022-11-15T16:17:20;8.57;;;3.92;;
61840;SDS011;47773;53.174;6.614;2022-11-15T16:19:47;6.60;;;4.50;;
61840;SDS011;47773;53.174;6.614;2022-11-15T16:22:13;13.05;;;8.00;;
61840;SDS011;47773;53.174;6.614;2022-11-15T16:24:38;18.92;;;10.27;;
61840;SDS011;47773;53.174;6.614;2022-11-15T16:27:04;17.77;;;8.15;;
61840;SDS011;47773;53.174;6.614;2022-11-15T16:29:30;13.07;;;7.03;;
61840;SDS011;47773;53.174;6.614;2022-11-15T16:31:55;10.75;;;6.63;;
61840;SDS011;47773;53.174;6.614;2022-11-15T16:34:21;11.73;;;7.65;;
61840;SDS011;47773;53.174;6.614;2022-11-15T16:36:47;10.15;;;5.80;;
61840;SDS011;47773;53.174;6.614;2022-11-15T16:39:13;8.38;;;5.20;;
61840;SDS011;47773;53.174;6.614;2022-11-15T16:41:40;10.35;;;5.65;;
61840;SDS011;47773;53.174;6.614;2022-11-15T16:44:08;8.50;;;5.28;;